sensor_id;sensor_type;location;lat;lon;timestamp;temperature;humidity
35962;DHT22;22044;48.298;10.008;2023-06-14T00:00:22;15.30;90.50
35962;DHT22;22044;48.298;10.008;2023-06-14T00:03:08;15.10;91.00
35962;DHT22;22044;48.298;10.008;2023-06-14T00:05:54;15.00;91.30
35962;DHT22;22044;48.298;10.008;2023-06-14T00:08:39;15.00;91.50
35962;DHT22;22044;48.298;10.008;2023-06-14T00:11:25;15.00;91.70
35962;DHT22;22044;48.298;10.008;2023-06-14T00:14:13;14.90;91.90
35962;DHT22;22044;48.298;10.008;2023-06-14T00:16:58;14.90;92.40
35962;DHT22;22044;48.298;10.008;2023-06-14T00:19:44;14.80;92.70
35962;DHT22;22044;48.298;10.008;2023-06-14T00:22:30;14.80;92.90
35962;DHT22;22044;48.298;10.008;2023-06-14T00:25:16;14.80;93.00
35962;DHT22;22044;48.298;10.008;2023-06-14T00:28:01;14.80;93.10
35962;DHT22;22044;48.298;10.008;2023-06-14T00:30:48;14.70;93.30
35962;DHT22;22044;48.298;10.008;2023-06-14T00:33:34;14.60;93.20
35962;DHT22;22044;48.298;10.008;2023-06-14T00:36:19;14.60;93.60
35962;DHT22;22044;48.298;10.008;2023-06-14T00:39:05;14.60;94.00
35962;DHT22;22044;48.298;10.008;2023-06-14T00:41:52;14.40;94.20
35962;DHT22;22044;48.298;10.008;2023-06-14T00:44:38;14.40;94.60
35962;DHT22;22044;48.298;10.008;2023-06-14T00:47:26;14.20;94.70
35962;DHT22;22044;48.298;10.008;2023-06-14T00:50:12;14.30;95.20
35962;DHT22;22044;48.298;10.008;2023-06-14T00:52:58;14.20;95.30
35962;DHT22;22044;48.298;10.008;2023-06-14T00:55:44;14.20;95.50
35962;DHT22;22044;48.298;10.008;2023-06-14T00:58:31;14.20;95.60
35962;DHT22;22044;48.298;10.008;2023-06-14T01:01:17;14.20;95.80
35962;DHT22;22044;48.298;10.008;2023-06-14T01:04:04;14.20;96.10
35962;DHT22;22044;48.298;10.008;2023-06-14T01:06:56;14.20;96.30
35962;DHT22;22044;48.298;10.008;2023-06-14T01:09:55;14.10;96.50
35962;DHT22;22044;48.298;10.008;2023-06-14T01:12:48;14.10;96.70
35962;DHT22;22044;48.298;10.008;2023-06-14T01:15:37;14.00;96.80
35962;DHT22;22044;48.298;10.008;2023-06-14T01:18:23;14.10;97.00
35962;DHT22;22044;48.298;10.008;2023-06-14T01:21:21;14.10;96.90
35962;DHT22;22044;48.298;10.008;2023-06-14T01:24:08;14.10;97.00
35962;DHT22;22044;48.298;10.008;2023-06-14T01:26:55;14.00;97.70
35962;DHT22;22044;48.298;10.008;2023-06-14T01:29:42;14.00;98.20
35962;DHT22;22044;48.298;10.008;2023-06-14T01:32:32;13.90;98.70
35962;DHT22;22044;48.298;10.008;2023-06-14T01:35:19;14.00;99.30
35962;DHT22;22044;48.298;10.008;2023-06-14T01:38:06;13.90;99.70
35962;DHT22;22044;48.298;10.008;2023-06-14T01:40:55;13.90;99.90
35962;DHT22;22044;48.298;10.008;2023-06-14T01:43:44;13.80;99.90
35962;DHT22;22044;48.298;10.008;2023-06-14T01:46:31;13.80;99.90
35962;DHT22;22044;48.298;10.008;2023-06-14T01:49:16;13.70;99.90
35962;DHT22;22044;48.298;10.008;2023-06-14T01:52:02;13.70;99.90
35962;DHT22;22044;48.298;10.008;2023-06-14T01:54:48;13.60;99.90
35962;DHT22;22044;48.298;10.008;2023-06-14T01:57:35;13.70;99.90
35962;DHT22;22044;48.298;10.008;2023-06-14T02:00:21;13.60;99.90
35962;DHT22;22044;48.298;10.008;2023-06-14T02:03:10;13.50;99.90
35962;DHT22;22044;48.298;10.008;2023-06-14T02:05:56;13.40;99.90
35962;DHT22;22044;48.298;10.008;2023-06-14T02:08:42;13.40;99.90
35962;DHT22;22044;48.298;10.008;2023-06-14T02:11:27;13.40;99.90
35962;DHT22;22044;48.298;10.008;2023-06-14T02:14:15;13.40;99.90
35962;DHT22;22044;48.298;10.008;2023-06-14T02:17:01;13.50;99.90
35962;DHT22;22044;48.298;10.008;2023-06-14T02:19:46;13.40;99.90
35962;DHT22;22044;48.298;10.008;2023-06-14T02:22:33;13.30;99.90
35962;DHT22;22044;48.298;10.008;2023-06-14T02:25:18;13.40;99.90
35962;DHT22;22044;48.298;10.008;2023-06-14T02:28:04;13.30;99.90
35962;DHT22;22044;48.298;10.008;2023-06-14T02:30:51;13.20;99.90
35962;DHT22;22044;48.298;10.008;2023-06-14T02:33:36;13.10;99.90
35962;DHT22;22044;48.298;10.008;2023-06-14T02:36:22;13.10;99.90
35962;DHT22;22044;48.298;10.008;2023-06-14T02:39:09;13.10;99.90
35962;DHT22;22044;48.298;10.008;2023-06-14T02:41:54;13.10;99.90
35962;DHT22;22044;48.298;10.008;2023-06-14T02:44:40;13.10;99.90
35962;DHT22;22044;48.298;10.008;2023-06-14T02:47:27;13.10;99.90
35962;DHT22;22044;48.298;10.008;2023-06-14T02:50:12;13.10;99.90
35962;DHT22;22044;48.298;10.008;2023-06-14T02:52:58;13.00;99.90
35962;DHT22;22044;48.298;10.008;2023-06-14T02:55:44;12.90;99.90
35962;DHT22;22044;48.298;10.008;2023-06-14T02:58:31;12.90;99.90
35962;DHT22;22044;48.298;10.008;2023-06-14T03:01:17;12.90;99.90
35962;DHT22;22044;48.298;10.008;2023-06-14T03:04:06;12.90;99.90
35962;DHT22;22044;48.298;10.008;2023-06-14T03:06:54;12.90;99.90
35962;DHT22;22044;48.298;10.008;2023-06-14T03:09:41;12.90;99.90
35962;DHT22;22044;48.298;10.008;2023-06-14T03:12:29;12.90;99.90
35962;DHT22;22044;48.298;10.008;2023-06-14T03:15:16;12.90;99.90
35962;DHT22;22044;48.298;10.008;2023-06-14T03:18:05;12.90;99.90
35962;DHT22;22044;48.298;10.008;2023-06-14T03:20:54;12.80;99.90
35962;DHT22;22044;48.298;10.008;2023-06-14T03:23:42;12.80;99.90
35962;DHT22;22044;48.298;10.008;2023-06-14T03:26:28;12.80;99.90
35962;DHT22;22044;48.298;10.008;2023-06-14T03:29:15;12.80;99.90
35962;DHT22;22044;48.298;10.008;2023-06-14T03:32:02;12.80;99.90
35962;DHT22;22044;48.298;10.008;2023-06-14T03:34:57;12.80;99.90
35962;DHT22;22044;48.298;10.008;2023-06-14T03:37:44;12.90;99.90
35962;DHT22;22044;48.298;10.008;2023-06-14T03:40:30;12.80;99.90
35962;DHT22;22044;48.298;10.008;2023-06-14T03:43:20;12.70;99.90
35962;DHT22;22044;48.298;10.008;2023-06-14T03:46:06;12.60;99.90
35962;DHT22;22044;48.298;10.008;2023-06-14T03:48:52;12.60;99.90
35962;DHT22;22044;48.298;10.008;2023-06-14T03:51:38;12.70;99.90
35962;DHT22;22044;48.298;10.008;2023-06-14T03:54:26;12.70;99.90
35962;DHT22;22044;48.298;10.008;2023-06-14T03:57:13;12.80;99.90
35962;DHT22;22044;48.298;10.008;2023-06-14T04:00:01;12.80;99.90
35962;DHT22;22044;48.298;10.008;2023-06-14T04:02:59;12.80;99.90
35962;DHT22;22044;48.298;10.008;2023-06-14T04:05:45;12.90;99.90
35962;DHT22;22044;48.298;10.008;2023-06-14T04:08:35;12.80;99.90
35962;DHT22;22044;48.298;10.008;2023-06-14T04:11:25;12.90;99.90
35962;DHT22;22044;48.298;10.008;2023-06-14T04:14:11;12.90;99.90
35962;DHT22;22044;48.298;10.008;2023-06-14T04:16:56;13.00;99.90
35962;DHT22;22044;48.298;10.008;2023-06-14T04:19:42;13.10;99.90
35962;DHT22;22044;48.298;10.008;2023-06-14T04:22:28;13.20;99.90
35962;DHT22;22044;48.298;10.008;2023-06-14T04:25:15;13.20;99.90
35962;DHT22;22044;48.298;10.008;2023-06-14T04:28:04;13.20;99.90
35962;DHT22;22044;48.298;10.008;2023-06-14T04:30:49;13.30;99.90
35962;DHT22;22044;48.298;10.008;2023-06-14T04:33:37;13.40;99.90
35962;DHT22;22044;48.298;10.008;2023-06-14T04:36:29;13.30;99.90
35962;DHT22;22044;48.298;10.008;2023-06-14T04:39:16;13.40;99.90
35962;DHT22;22044;48.298;10.008;2023-06-14T04:42:04;13.40;99.90
35962;DHT22;22044;48.298;10.008;2023-06-14T04:44:53;13.40;99.90
35962;DHT22;22044;48.298;10.008;2023-06-14T04:47:41;13.50;99.90
35962;DHT22;22044;48.298;10.008;2023-06-14T04:50:27;13.60;99.90
35962;DHT22;22044;48.298;10.008;2023-06-14T04:53:14;13.60;99.90
35962;DHT22;22044;48.298;10.008;2023-06-14T04:56:00;13.70;99.90
35962;DHT22;22044;48.298;10.008;2023-06-14T04:58:49;13.70;99.90
35962;DHT22;22044;48.298;10.008;2023-06-14T05:01:36;13.80;99.90
35962;DHT22;22044;48.298;10.008;2023-06-14T05:04:22;13.80;99.90
35962;DHT22;22044;48.298;10.008;2023-06-14T05:07:08;13.80;99.90
35962;DHT22;22044;48.298;10.008;2023-06-14T05:09:55;13.90;99.90
35962;DHT22;22044;48.298;10.008;2023-06-14T05:12:40;14.00;99.90
35962;DHT22;22044;48.298;10.008;2023-06-14T05:15:28;14.00;99.90
35962;DHT22;22044;48.298;10.008;2023-06-14T05:18:15;14.00;99.90
35962;DHT22;22044;48.298;10.008;2023-06-14T05:21:01;14.00;99.90
35962;DHT22;22044;48.298;10.008;2023-06-14T05:23:46;14.10;99.90
35962;DHT22;22044;48.298;10.008;2023-06-14T05:26:32;14.10;99.90
35962;DHT22;22044;48.298;10.008;2023-06-14T05:29:18;14.20;99.90
35962;DHT22;22044;48.298;10.008;2023-06-14T05:32:04;14.20;99.90
35962;DHT22;22044;48.298;10.008;2023-06-14T05:34:51;14.30;99.90
35962;DHT22;22044;48.298;10.008;2023-06-14T05:37:36;14.50;99.90
35962;DHT22;22044;48.298;10.008;2023-06-14T05:40:22;14.50;99.90
35962;DHT22;22044;48.298;10.008;2023-06-14T05:43:08;14.60;99.90
35962;DHT22;22044;48.298;10.008;2023-06-14T05:45:55;14.60;99.90
35962;DHT22;22044;48.298;10.008;2023-06-14T05:48:40;14.80;99.90
35962;DHT22;22044;48.298;10.008;2023-06-14T05:51:27;14.80;99.90
35962;DHT22;22044;48.298;10.008;2023-06-14T05:54:13;14.90;99.90
35962;DHT22;22044;48.298;10.008;2023-06-14T05:56:59;15.00;99.90
35962;DHT22;22044;48.298;10.008;2023-06-14T05:59:46;14.90;99.90
35962;DHT22;22044;48.298;10.008;2023-06-14T06:02:32;14.90;99.90
35962;DHT22;22044;48.298;10.008;2023-06-14T06:05:17;15.00;99.90
35962;DHT22;22044;48.298;10.008;2023-06-14T06:08:05;15.00;99.90
35962;DHT22;22044;48.298;10.008;2023-06-14T06:10:51;15.10;99.90
35962;DHT22;22044;48.298;10.008;2023-06-14T06:13:40;15.30;99.90
35962;DHT22;22044;48.298;10.008;2023-06-14T06:16:26;15.40;99.90
35962;DHT22;22044;48.298;10.008;2023-06-14T06:19:12;15.40;99.90
35962;DHT22;22044;48.298;10.008;2023-06-14T06:21:57;15.40;99.90
35962;DHT22;22044;48.298;10.008;2023-06-14T06:24:44;15.50;99.90
35962;DHT22;22044;48.298;10.008;2023-06-14T06:27:30;15.50;99.90
35962;DHT22;22044;48.298;10.008;2023-06-14T06:30:16;15.70;99.90
35962;DHT22;22044;48.298;10.008;2023-06-14T06:33:01;15.70;99.90
35962;DHT22;22044;48.298;10.008;2023-06-14T06:35:47;15.90;99.90
35962;DHT22;22044;48.298;10.008;2023-06-14T06:38:33;16.00;99.90
35962;DHT22;22044;48.298;10.008;2023-06-14T06:41:20;16.00;99.90
35962;DHT22;22044;48.298;10.008;2023-06-14T06:44:06;16.00;99.90
35962;DHT22;22044;48.298;10.008;2023-06-14T06:46:52;16.20;99.90
35962;DHT22;22044;48.298;10.008;2023-06-14T06:49:38;16.20;99.90
35962;DHT22;22044;48.298;10.008;2023-06-14T06:52:23;16.30;99.90
35962;DHT22;22044;48.298;10.008;2023-06-14T06:55:09;16.30;99.90
35962;DHT22;22044;48.298;10.008;2023-06-14T06:57:56;16.40;99.90
35962;DHT22;22044;48.298;10.008;2023-06-14T07:00:42;16.40;99.90
35962;DHT22;22044;48.298;10.008;2023-06-14T07:03:28;16.50;99.90
35962;DHT22;22044;48.298;10.008;2023-06-14T07:06:14;16.60;99.90
35962;DHT22;22044;48.298;10.008;2023-06-14T07:09:01;16.80;99.90
35962;DHT22;22044;48.298;10.008;2023-06-14T07:11:49;16.90;99.90
35962;DHT22;22044;48.298;10.008;2023-06-14T07:14:36;17.00;99.90
35962;DHT22;22044;48.298;10.008;2023-06-14T07:17:21;17.10;99.90
35962;DHT22;22044;48.298;10.008;2023-06-14T07:20:08;17.20;99.90
35962;DHT22;22044;48.298;10.008;2023-06-14T07:22:57;17.40;99.90
35962;DHT22;22044;48.298;10.008;2023-06-14T07:25:43;17.40;99.90
35962;DHT22;22044;48.298;10.008;2023-06-14T07:28:28;17.50;99.90
35962;DHT22;22044;48.298;10.008;2023-06-14T07:31:16;17.70;99.90
35962;DHT22;22044;48.298;10.008;2023-06-14T07:34:03;18.00;99.90
35962;DHT22;22044;48.298;10.008;2023-06-14T07:36:48;18.10;99.90
35962;DHT22;22044;48.298;10.008;2023-06-14T07:39:34;18.10;99.90
35962;DHT22;22044;48.298;10.008;2023-06-14T07:42:20;18.30;99.90
35962;DHT22;22044;48.298;10.008;2023-06-14T07:45:06;18.40;99.90
35962;DHT22;22044;48.298;10.008;2023-06-14T07:47:53;18.40;99.90
35962;DHT22;22044;48.298;10.008;2023-06-14T07:50:39;18.40;99.90
35962;DHT22;22044;48.298;10.008;2023-06-14T07:53:25;18.60;99.90
35962;DHT22;22044;48.298;10.008;2023-06-14T07:56:10;18.60;99.90
35962;DHT22;22044;48.298;10.008;2023-06-14T07:58:56;18.70;99.90
35962;DHT22;22044;48.298;10.008;2023-06-14T08:01:42;18.70;99.90
35962;DHT22;22044;48.298;10.008;2023-06-14T08:04:33;18.80;99.90
35962;DHT22;22044;48.298;10.008;2023-06-14T08:07:19;18.70;99.90
35962;DHT22;22044;48.298;10.008;2023-06-14T08:10:05;18.70;99.90
35962;DHT22;22044;48.298;10.008;2023-06-14T08:12:51;18.80;99.90
35962;DHT22;22044;48.298;10.008;2023-06-14T08:15:37;18.90;99.90
35962;DHT22;22044;48.298;10.008;2023-06-14T08:18:22;19.00;99.90
35962;DHT22;22044;48.298;10.008;2023-06-14T08:21:09;19.10;99.90
35962;DHT22;22044;48.298;10.008;2023-06-14T08:23:55;19.20;99.90
35962;DHT22;22044;48.298;10.008;2023-06-14T08:26:41;19.40;99.90
35962;DHT22;22044;48.298;10.008;2023-06-14T08:29:26;19.50;99.90
35962;DHT22;22044;48.298;10.008;2023-06-14T08:32:15;19.60;99.90
35962;DHT22;22044;48.298;10.008;2023-06-14T08:35:01;19.60;99.90
35962;DHT22;22044;48.298;10.008;2023-06-14T08:37:49;19.80;99.90
35962;DHT22;22044;48.298;10.008;2023-06-14T08:40:37;19.90;99.90
35962;DHT22;22044;48.298;10.008;2023-06-14T08:43:23;19.90;99.90
35962;DHT22;22044;48.298;10.008;2023-06-14T08:46:09;19.80;99.90
35962;DHT22;22044;48.298;10.008;2023-06-14T08:48:56;19.80;99.90
35962;DHT22;22044;48.298;10.008;2023-06-14T08:51:43;20.00;99.90
35962;DHT22;22044;48.298;10.008;2023-06-14T08:54:32;20.20;99.90
35962;DHT22;22044;48.298;10.008;2023-06-14T08:57:28;20.50;99.90
35962;DHT22;22044;48.298;10.008;2023-06-14T09:00:18;20.40;99.90
35962;DHT22;22044;48.298;10.008;2023-06-14T09:03:07;20.40;99.90
35962;DHT22;22044;48.298;10.008;2023-06-14T09:05:58;20.40;99.90
35962;DHT22;22044;48.298;10.008;2023-06-14T09:08:46;20.50;99.90
35962;DHT22;22044;48.298;10.008;2023-06-14T09:11:35;20.40;99.90
35962;DHT22;22044;48.298;10.008;2023-06-14T09:14:23;20.40;99.90
35962;DHT22;22044;48.298;10.008;2023-06-14T09:17:13;20.70;99.90
35962;DHT22;22044;48.298;10.008;2023-06-14T09:19:59;20.90;99.90
35962;DHT22;22044;48.298;10.008;2023-06-14T09:22:45;21.00;99.90
35962;DHT22;22044;48.298;10.008;2023-06-14T09:25:41;21.00;99.90
35962;DHT22;22044;48.298;10.008;2023-06-14T09:28:29;21.20;99.90
35962;DHT22;22044;48.298;10.008;2023-06-14T09:31:16;21.20;99.90
35962;DHT22;22044;48.298;10.008;2023-06-14T09:34:02;21.30;99.90
35962;DHT22;22044;48.298;10.008;2023-06-14T09:36:49;21.30;99.90
35962;DHT22;22044;48.298;10.008;2023-06-14T09:39:34;21.50;99.90
35962;DHT22;22044;48.298;10.008;2023-06-14T09:42:22;21.60;99.90
35962;DHT22;22044;48.298;10.008;2023-06-14T09:45:12;21.70;98.80
35962;DHT22;22044;48.298;10.008;2023-06-14T09:47:58;21.80;98.90
35962;DHT22;22044;48.298;10.008;2023-06-14T09:50:45;21.70;99.20
35962;DHT22;22044;48.298;10.008;2023-06-14T09:53:34;21.80;99.90
35962;DHT22;22044;48.298;10.008;2023-06-14T09:56:26;22.00;99.90
35962;DHT22;22044;48.298;10.008;2023-06-14T09:59:12;22.20;99.00
35962;DHT22;22044;48.298;10.008;2023-06-14T10:02:04;22.40;99.90
35962;DHT22;22044;48.298;10.008;2023-06-14T10:04:58;21.80;96.40
35962;DHT22;22044;48.298;10.008;2023-06-14T10:07:51;21.60;95.80
35962;DHT22;22044;48.298;10.008;2023-06-14T10:10:39;21.50;94.80
35962;DHT22;22044;48.298;10.008;2023-06-14T10:13:32;21.60;95.40
35962;DHT22;22044;48.298;10.008;2023-06-14T10:16:24;22.00;96.10
35962;DHT22;22044;48.298;10.008;2023-06-14T10:19:22;22.10;96.80
35962;DHT22;22044;48.298;10.008;2023-06-14T10:22:14;22.50;97.70
35962;DHT22;22044;48.298;10.008;2023-06-14T10:25:26;22.50;96.50
35962;DHT22;22044;48.298;10.008;2023-06-14T10:28:18;22.70;96.10
35962;DHT22;22044;48.298;10.008;2023-06-14T10:31:08;22.80;95.90
35962;DHT22;22044;48.298;10.008;2023-06-14T10:33:56;22.80;94.20
35962;DHT22;22044;48.298;10.008;2023-06-14T10:36:44;22.70;94.60
35962;DHT22;22044;48.298;10.008;2023-06-14T10:39:30;22.70;94.90
35962;DHT22;22044;48.298;10.008;2023-06-14T10:42:17;22.90;93.80
35962;DHT22;22044;48.298;10.008;2023-06-14T10:45:05;23.10;94.50
35962;DHT22;22044;48.298;10.008;2023-06-14T10:47:51;23.30;94.00
35962;DHT22;22044;48.298;10.008;2023-06-14T10:50:42;23.30;93.50
35962;DHT22;22044;48.298;10.008;2023-06-14T10:53:40;23.20;92.70
35962;DHT22;22044;48.298;10.008;2023-06-14T10:56:29;22.90;94.60
35962;DHT22;22044;48.298;10.008;2023-06-14T10:59:16;23.10;93.30
35962;DHT22;22044;48.298;10.008;2023-06-14T11:02:18;23.30;94.00
35962;DHT22;22044;48.298;10.008;2023-06-14T11:05:08;23.40;92.30
35962;DHT22;22044;48.298;10.008;2023-06-14T11:08:15;23.60;92.30
35962;DHT22;22044;48.298;10.008;2023-06-14T11:11:06;23.70;91.50
35962;DHT22;22044;48.298;10.008;2023-06-14T11:13:52;23.90;93.00
35962;DHT22;22044;48.298;10.008;2023-06-14T11:16:38;23.70;91.50
35962;DHT22;22044;48.298;10.008;2023-06-14T11:19:24;23.30;91.10
35962;DHT22;22044;48.298;10.008;2023-06-14T11:22:12;23.40;91.40
35962;DHT22;22044;48.298;10.008;2023-06-14T11:25:01;23.70;90.90
35962;DHT22;22044;48.298;10.008;2023-06-14T11:27:50;23.90;90.30
35962;DHT22;22044;48.298;10.008;2023-06-14T11:30:36;23.90;89.20
35962;DHT22;22044;48.298;10.008;2023-06-14T11:33:22;23.80;88.90
35962;DHT22;22044;48.298;10.008;2023-06-14T11:36:09;23.70;89.10
35962;DHT22;22044;48.298;10.008;2023-06-14T11:38:58;23.40;91.10
35962;DHT22;22044;48.298;10.008;2023-06-14T11:41:45;23.70;91.20
35962;DHT22;22044;48.298;10.008;2023-06-14T11:44:33;24.00;89.90
35962;DHT22;22044;48.298;10.008;2023-06-14T11:47:19;24.20;90.00
35962;DHT22;22044;48.298;10.008;2023-06-14T11:50:06;24.40;85.50
35962;DHT22;22044;48.298;10.008;2023-06-14T11:52:53;24.30;86.20
35962;DHT22;22044;48.298;10.008;2023-06-14T11:55:39;24.30;90.70
35962;DHT22;22044;48.298;10.008;2023-06-14T11:58:25;24.40;88.00
35962;DHT22;22044;48.298;10.008;2023-06-14T12:01:16;24.40;84.00
35962;DHT22;22044;48.298;10.008;2023-06-14T12:04:02;24.30;84.80
35962;DHT22;22044;48.298;10.008;2023-06-14T12:06:48;24.50;85.40
35962;DHT22;22044;48.298;10.008;2023-06-14T12:09:33;24.50;87.00
35962;DHT22;22044;48.298;10.008;2023-06-14T12:12:21;24.60;87.10
35962;DHT22;22044;48.298;10.008;2023-06-14T12:15:08;24.40;85.10
35962;DHT22;22044;48.298;10.008;2023-06-14T12:17:57;24.00;83.00
35962;DHT22;22044;48.298;10.008;2023-06-14T12:20:43;23.70;83.70
35962;DHT22;22044;48.298;10.008;2023-06-14T12:23:43;23.90;82.60
35962;DHT22;22044;48.298;10.008;2023-06-14T12:26:28;24.10;84.90
35962;DHT22;22044;48.298;10.008;2023-06-14T12:29:14;24.00;82.60
35962;DHT22;22044;48.298;10.008;2023-06-14T12:32:00;24.10;84.90
35962;DHT22;22044;48.298;10.008;2023-06-14T12:34:47;24.10;87.00
35962;DHT22;22044;48.298;10.008;2023-06-14T12:37:34;24.40;86.30
35962;DHT22;22044;48.298;10.008;2023-06-14T12:40:19;24.50;84.60
35962;DHT22;22044;48.298;10.008;2023-06-14T12:43:05;24.50;84.80
35962;DHT22;22044;48.298;10.008;2023-06-14T12:45:50;24.10;83.90
35962;DHT22;22044;48.298;10.008;2023-06-14T12:48:36;23.80;82.40
35962;DHT22;22044;48.298;10.008;2023-06-14T12:51:23;24.20;83.30
35962;DHT22;22044;48.298;10.008;2023-06-14T12:54:09;24.20;83.90
35962;DHT22;22044;48.298;10.008;2023-06-14T12:56:56;24.30;81.60
35962;DHT22;22044;48.298;10.008;2023-06-14T12:59:42;24.40;79.80
35962;DHT22;22044;48.298;10.008;2023-06-14T13:02:27;24.80;80.40
35962;DHT22;22044;48.298;10.008;2023-06-14T13:05:13;25.10;81.10
35962;DHT22;22044;48.298;10.008;2023-06-14T13:08:00;24.90;84.00
35962;DHT22;22044;48.298;10.008;2023-06-14T13:10:46;25.00;83.20
35962;DHT22;22044;48.298;10.008;2023-06-14T13:13:31;25.10;81.50
35962;DHT22;22044;48.298;10.008;2023-06-14T13:16:18;25.00;80.10
35962;DHT22;22044;48.298;10.008;2023-06-14T13:19:03;24.60;80.10
35962;DHT22;22044;48.298;10.008;2023-06-14T13:21:49;24.00;80.60
35962;DHT22;22044;48.298;10.008;2023-06-14T13:24:36;23.70;81.80
35962;DHT22;22044;48.298;10.008;2023-06-14T13:27:22;23.60;79.60
35962;DHT22;22044;48.298;10.008;2023-06-14T13:30:10;24.10;79.50
35962;DHT22;22044;48.298;10.008;2023-06-14T13:32:55;23.90;79.50
35962;DHT22;22044;48.298;10.008;2023-06-14T13:35:41;24.30;76.90
35962;DHT22;22044;48.298;10.008;2023-06-14T13:38:26;24.20;77.40
35962;DHT22;22044;48.298;10.008;2023-06-14T13:41:19;24.60;78.00
35962;DHT22;22044;48.298;10.008;2023-06-14T13:44:23;24.80;79.50
35962;DHT22;22044;48.298;10.008;2023-06-14T13:47:09;25.10;81.10
35962;DHT22;22044;48.298;10.008;2023-06-14T13:49:55;25.20;81.20
35962;DHT22;22044;48.298;10.008;2023-06-14T13:52:42;25.00;81.10
35962;DHT22;22044;48.298;10.008;2023-06-14T13:55:28;25.20;82.30
35962;DHT22;22044;48.298;10.008;2023-06-14T13:58:15;25.00;78.00
35962;DHT22;22044;48.298;10.008;2023-06-14T14:01:01;24.50;78.00
35962;DHT22;22044;48.298;10.008;2023-06-14T14:03:46;24.00;77.10
35962;DHT22;22044;48.298;10.008;2023-06-14T14:06:32;24.00;77.10
35962;DHT22;22044;48.298;10.008;2023-06-14T14:09:18;24.20;77.90
35962;DHT22;22044;48.298;10.008;2023-06-14T14:12:05;24.50;76.70
35962;DHT22;22044;48.298;10.008;2023-06-14T14:14:54;24.60;77.90
35962;DHT22;22044;48.298;10.008;2023-06-14T14:17:40;24.30;77.60
35962;DHT22;22044;48.298;10.008;2023-06-14T14:20:26;24.60;75.00
35962;DHT22;22044;48.298;10.008;2023-06-14T14:23:11;24.00;73.70
35962;DHT22;22044;48.298;10.008;2023-06-14T14:25:57;24.00;75.10
35962;DHT22;22044;48.298;10.008;2023-06-14T14:28:42;24.40;75.70
35962;DHT22;22044;48.298;10.008;2023-06-14T14:31:30;24.70;76.80
35962;DHT22;22044;48.298;10.008;2023-06-14T14:34:15;24.40;75.70
35962;DHT22;22044;48.298;10.008;2023-06-14T14:37:01;24.70;76.80
35962;DHT22;22044;48.298;10.008;2023-06-14T14:39:47;25.00;77.10
35962;DHT22;22044;48.298;10.008;2023-06-14T14:42:32;25.00;76.00
35962;DHT22;22044;48.298;10.008;2023-06-14T14:45:18;24.70;75.10
35962;DHT22;22044;48.298;10.008;2023-06-14T14:48:05;24.30;72.00
35962;DHT22;22044;48.298;10.008;2023-06-14T14:50:51;24.20;75.50
35962;DHT22;22044;48.298;10.008;2023-06-14T14:53:36;24.20;74.00
35962;DHT22;22044;48.298;10.008;2023-06-14T14:56:22;24.10;72.20
35962;DHT22;22044;48.298;10.008;2023-06-14T14:59:08;24.40;73.10
35962;DHT22;22044;48.298;10.008;2023-06-14T15:01:53;24.30;75.20
35962;DHT22;22044;48.298;10.008;2023-06-14T15:04:41;24.40;72.80
35962;DHT22;22044;48.298;10.008;2023-06-14T15:07:26;24.30;72.20
35962;DHT22;22044;48.298;10.008;2023-06-14T15:10:12;24.10;72.00
35962;DHT22;22044;48.298;10.008;2023-06-14T15:12:58;24.20;72.30
35962;DHT22;22044;48.298;10.008;2023-06-14T15:15:43;24.30;74.30
35962;DHT22;22044;48.298;10.008;2023-06-14T15:18:29;24.30;71.50
35962;DHT22;22044;48.298;10.008;2023-06-14T15:21:16;24.50;73.10
35962;DHT22;22044;48.298;10.008;2023-06-14T15:24:03;24.60;70.00
35962;DHT22;22044;48.298;10.008;2023-06-14T15:26:50;24.60;73.30
35962;DHT22;22044;48.298;10.008;2023-06-14T15:29:35;24.70;71.40
35962;DHT22;22044;48.298;10.008;2023-06-14T15:32:21;24.80;69.80
35962;DHT22;22044;48.298;10.008;2023-06-14T15:35:07;25.00;70.00
35962;DHT22;22044;48.298;10.008;2023-06-14T15:37:54;24.70;69.00
35962;DHT22;22044;48.298;10.008;2023-06-14T15:40:39;24.50;70.10
35962;DHT22;22044;48.298;10.008;2023-06-14T15:43:25;24.40;67.50
35962;DHT22;22044;48.298;10.008;2023-06-14T15:46:11;24.00;69.30
35962;DHT22;22044;48.298;10.008;2023-06-14T15:48:56;24.10;66.70
35962;DHT22;22044;48.298;10.008;2023-06-14T15:51:42;24.30;69.70
35962;DHT22;22044;48.298;10.008;2023-06-14T15:54:29;24.60;67.40
35962;DHT22;22044;48.298;10.008;2023-06-14T15:57:14;24.70;69.10
35962;DHT22;22044;48.298;10.008;2023-06-14T16:00:00;24.50;70.10
35962;DHT22;22044;48.298;10.008;2023-06-14T16:02:46;24.20;71.30
35962;DHT22;22044;48.298;10.008;2023-06-14T16:05:31;24.10;70.90
35962;DHT22;22044;48.298;10.008;2023-06-14T16:08:17;23.80;70.90
35962;DHT22;22044;48.298;10.008;2023-06-14T16:11:04;23.90;71.20
35962;DHT22;22044;48.298;10.008;2023-06-14T16:13:50;24.20;71.10
35962;DHT22;22044;48.298;10.008;2023-06-14T16:16:35;24.40;72.30
35962;DHT22;22044;48.298;10.008;2023-06-14T16:19:21;23.80;69.70
35962;DHT22;22044;48.298;10.008;2023-06-14T16:22:07;23.50;69.30
35962;DHT22;22044;48.298;10.008;2023-06-14T16:24:52;23.90;71.60
35962;DHT22;22044;48.298;10.008;2023-06-14T16:27:39;24.10;70.70
35962;DHT22;22044;48.298;10.008;2023-06-14T16:30:25;24.30;70.90
35962;DHT22;22044;48.298;10.008;2023-06-14T16:33:10;24.60;71.90
35962;DHT22;22044;48.298;10.008;2023-06-14T16:35:56;24.10;70.20
35962;DHT22;22044;48.298;10.008;2023-06-14T16:38:42;24.20;70.10
35962;DHT22;22044;48.298;10.008;2023-06-14T16:41:27;24.10;72.20
35962;DHT22;22044;48.298;10.008;2023-06-14T16:44:14;24.10;74.20
35962;DHT22;22044;48.298;10.008;2023-06-14T16:47:00;24.10;71.90
35962;DHT22;22044;48.298;10.008;2023-06-14T16:49:46;24.00;70.80
35962;DHT22;22044;48.298;10.008;2023-06-14T16:52:32;24.20;72.70
35962;DHT22;22044;48.298;10.008;2023-06-14T16:55:18;24.00;71.40
35962;DHT22;22044;48.298;10.008;2023-06-14T16:58:03;23.80;70.80
35962;DHT22;22044;48.298;10.008;2023-06-14T17:00:50;23.70;70.50
35962;DHT22;22044;48.298;10.008;2023-06-14T17:03:36;23.40;73.40
35962;DHT22;22044;48.298;10.008;2023-06-14T17:06:23;23.40;74.00
35962;DHT22;22044;48.298;10.008;2023-06-14T17:09:09;23.30;73.10
35962;DHT22;22044;48.298;10.008;2023-06-14T17:11:54;23.30;74.80
35962;DHT22;22044;48.298;10.008;2023-06-14T17:14:40;23.00;73.40
35962;DHT22;22044;48.298;10.008;2023-06-14T17:17:28;23.00;73.60